Time;durP1;ratioP1;P1;durP2;ratioP2;P2;SDS_P1;SDS_P2;PMS_P1;PMS_P2;Temp;Humidity;BMP_temperature;BMP_pressure;BME280_temperature;BME280_humidity;BME280_pressure;Samples;Min_cycle;Max_cycle;Signal;HPM_P1;HPM_P2
2022/04/25 00:00:57;;;;;;;0.85;0.85;;;;;;;;;;6205092;23;20059;-48
2022/04/25 00:03:23;;;;;;;1.73;1.10;;;;;;;;;;6148098;23;20044;-45
2022/04/25 00:05:49;;;;;;;2.88;1.30;;;;;;;;;;6148742;23;20009;-47
2022/04/25 00:08:15;;;;;;;1.27;1.17;;;;;;;;;;6174823;23;20001;-46
2022/04/25 00:10:41;;;;;;;1.00;1.00;;;;;;;;;;6174035;23;20001;-47
2022/04/25 00:13:07;;;;;;;1.10;0.93;;;;;;;;;;6175503;23;20001;-45
2022/04/25 00:15:33;;;;;;;1.00;0.88;;;;;;;;;;6173893;23;20028;-48
2022/04/25 00:17:59;;;;;;;0.80;0.80;;;;;;;;;;6174722;23;20343;-47
2022/04/25 00:20:25;;;;;;;1.73;1.00;;;;;;;;;;6175831;23;20417;-46
2022/04/25 00:22:51;;;;;;;0.80;0.80;;;;;;;;;;6175381;23;20040;-46
2022/04/25 00:25:17;;;;;;;0.70;0.70;;;;;;;;;;6174958;23;20114;-45
2022/04/25 00:27:43;;;;;;;1.15;1.05;;;;;;;;;;6174873;23;20573;-47
2022/04/25 00:30:09;;;;;;;1.92;1.33;;;;;;;;;;6174711;23;20001;-48
2022/04/25 00:32:35;;;;;;;1.48;1.30;;;;;;;;;;6174687;23;20002;-44
2022/04/25 00:35:03;;;;;;;2.10;1.70;;;;;;;;;;6175272;23;20012;-49
2022/04/25 00:37:30;;;;;;;1.70;1.25;;;;;;;;;;6175063;23;20001;-48
2022/04/25 00:39:56;;;;;;;1.48;1.38;;;;;;;;;;6175021;23;20045;-45
2022/04/25 00:42:22;;;;;;;1.90;1.10;;;;;;;;;;6175856;23;20009;-47
2022/04/25 00:44:48;;;;;;;1.20;1.10;;;;;;;;;;6174765;23;20216;-48
2022/04/25 00:47:15;;;;;;;1.58;1.48;;;;;;;;;;6174617;23;20013;-49
2022/04/25 00:49:42;;;;;;;2.22;2.03;;;;;;;;;;6175069;23;20005;-48
2022/04/25 00:52:09;;;;;;;2.85;2.50;;;;;;;;;;6175096;23;19997;-45
2022/04/25 00:54:36;;;;;;;2.35;1.88;;;;;;;;;;6175326;23;20005;-47
2022/04/25 00:57:02;;;;;;;2.45;2.25;;;;;;;;;;6176482;23;20083;-45
2022/04/25 00:59:28;;;;;;;2.40;2.20;;;;;;;;;;6176469;23;20052;-45
2022/04/25 01:01:54;;;;;;;3.53;3.10;;;;;;;;;;6188492;23;20095;-48
2022/04/25 01:04:21;;;;;;;3.30;2.90;;;;;;;;;;6206466;23;20079;-46
2022/04/25 01:06:48;;;;;;;3.30;3.00;;;;;;;;;;6179989;23;20067;-47
2022/04/25 01:09:14;;;;;;;4.63;3.63;;;;;;;;;;6206529;23;20050;-47
2022/04/25 01:11:40;;;;;;;3.65;3.00;;;;;;;;;;6206747;23;19997;-48
2022/04/25 01:14:17;;;;;;;3.72;3.35;;;;;;;;;;6206710;23;20012;-46
2022/04/25 01:16:44;;;;;;;4.57;3.90;;;;;;;;;;6206172;23;20036;-46
2022/04/25 01:19:10;;;;;;;4.05;3.65;;;;;;;;;;6205773;23;20005;-45
2022/04/25 01:21:39;;;;;;;6.13;4.80;;;;;;;;;;6207459;23;20076;-49
2022/04/25 01:29:37;;;;;;;3.45;3.15;;;;;;;;;;6208791;23;20024;-49
2022/04/25 01:32:04;;;;;;;3.10;2.80;;;;;;;;;;6209015;23;20016;-47
2022/04/25 01:34:32;;;;;;;3.30;2.97;;;;;;;;;;6209182;23;20001;-47
2022/04/25 01:37:00;;;;;;;4.15;3.05;;;;;;;;;;6208966;23;20062;-48
2022/04/25 01:39:26;;;;;;;3.80;3.42;;;;;;;;;;6182037;23;20389;-48
2022/04/25 01:41:52;;;;;;;4.30;3.90;;;;;;;;;;6209151;23;20008;-48
2022/04/25 01:44:18;;;;;;;3.80;3.50;;;;;;;;;;6208557;23;20477;-49
2022/04/25 01:46:44;;;;;;;3.40;3.10;;;;;;;;;;6208785;23;20007;-50
2022/04/25 01:49:10;;;;;;;3.05;2.85;;;;;;;;;;6208434;23;20012;-50
2022/04/25 01:51:39;;;;;;;5.15;3.72;;;;;;;;;;6208867;23;20314;-48
2022/04/25 01:54:06;;;;;;;4.38;3.78;;;;;;;;;;6208985;23;20008;-49
2022/04/25 01:56:32;;;;;;;3.13;2.83;;;;;;;;;;6208883;23;20098;-47
2022/04/25 01:58:58;;;;;;;4.13;3.72;;;;;;;;;;6208629;23;20005;-46
2022/04/25 02:01:24;;;;;;;2.92;2.60;;;;;;;;;;6208786;23;20012;-49
2022/04/25 02:03:50;;;;;;;3.22;2.92;;;;;;;;;;6208699;23;20004;-47
2022/04/25 02:06:16;;;;;;;3.60;3.30;;;;;;;;;;6208635;23;20454;-48
2022/04/25 02:08:43;;;;;;;3.60;3.30;;;;;;;;;;6206783;23;20005;-47
2022/04/25 02:11:25;;;;;;;2.80;2.60;;;;;;;;;;6209097;23;20059;-48
2022/04/25 02:13:52;;;;;;;3.40;3.10;;;;;;;;;;6207699;23;20394;-49
2022/04/25 02:16:21;;;;;;;3.30;3.00;;;;;;;;;;6208346;23;20012;-49
2022/04/25 02:18:48;;;;;;;3.40;3.10;;;;;;;;;;6208253;23;20837;-48
2022/04/25 02:21:14;;;;;;;2.80;2.60;;;;;;;;;;6208806;23;20058;-47
2022/04/25 02:23:41;;;;;;;4.05;3.70;;;;;;;;;;6208480;23;20024;-49
2022/04/25 02:26:08;;;;;;;3.22;2.92;;;;;;;;;;6208685;23;20012;-47
2022/04/25 02:28:34;;;;;;;3.50;3.20;;;;;;;;;;6208476;23;20001;-49
2022/04/25 02:31:01;;;;;;;3.03;2.40;;;;;;;;;;6208756;23;20605;-46
2022/04/25 02:33:27;;;;;;;2.65;2.40;;;;;;;;;;6209154;23;20235;-47
2022/04/25 02:35:54;;;;;;;3.95;3.33;;;;;;;;;;6208652;23;19996;-49
2022/04/25 02:38:20;;;;;;;3.42;3.13;;;;;;;;;;6208412;23;20001;-49
2022/04/25 02:41:04;;;;;;;2.65;2.45;;;;;;;;;;6208552;23;19997;-51
2022/04/25 02:43:30;;;;;;;4.53;3.75;;;;;;;;;;6208359;23;20024;-47
2022/04/25 02:45:56;;;;;;;3.85;3.50;;;;;;;;;;6208737;23;20004;-44
2022/04/25 02:48:22;;;;;;;4.15;3.70;;;;;;;;;;6208998;23;20791;-49
2022/04/25 02:50:48;;;;;;;3.60;3.30;;;;;;;;;;6208411;23;20453;-49
2022/04/25 02:53:15;;;;;;;3.53;3.22;;;;;;;;;;6208033;23;20012;-49
2022/04/25 02:55:41;;;;;;;3.28;2.80;;;;;;;;;;6207977;23;20078;-49
2022/04/25 02:58:10;;;;;;;2.88;2.67;;;;;;;;;;6207637;23;20009;-49
2022/04/25 03:00:36;;;;;;;2.72;2.53;;;;;;;;;;6207954;23;20001;-46
2022/04/25 03:03:02;;;;;;;3.40;2.90;;;;;;;;;;6208078;23;20012;-48
2022/04/25 03:05:28;;;;;;;3.10;2.80;;;;;;;;;;6208223;23;20492;-47
2022/04/25 03:07:54;;;;;;;4.25;3.42;;;;;;;;;;6208563;23;20452;-48
2022/04/25 03:10:20;;;;;;;4.25;3.83;;;;;;;;;;6207981;23;20005;-47
2022/04/25 03:12:46;;;;;;;4.53;4.13;;;;;;;;;;6207934;23;20001;-47
2022/04/25 03:15:13;;;;;;;5.82;5.20;;;;;;;;;;6208016;23;20000;-46
2022/04/25 03:17:39;;;;;;;5.10;4.57;;;;;;;;;;6207454;23;20083;-49
2022/04/25 03:20:06;;;;;;;5.68;5.03;;;;;;;;;;6208032;23;20473;-49
2022/04/25 03:22:32;;;;;;;5.80;5.30;;;;;;;;;;6207972;23;20083;-47
2022/04/25 03:24:58;;;;;;;5.40;4.90;;;;;;;;;;6207337;23;20012;-47
2022/04/25 03:27:24;;;;;;;5.53;5.03;;;;;;;;;;6208439;23;20545;-47
2022/04/25 03:29:50;;;;;;;5.93;5.28;;;;;;;;;;6207644;23;20503;-47
2022/04/25 03:32:16;;;;;;;7.22;6.50;;;;;;;;;;6208177;23;20350;-48
2022/04/25 03:34:42;;;;;;;7.30;6.55;;;;;;;;;;6207245;23;20453;-48
2022/04/25 03:37:11;;;;;;;7.13;6.15;;;;;;;;;;6207917;23;20444;-47
2022/04/25 03:39:38;;;;;;;9.45;7.75;;;;;;;;;;6207778;23;20014;-48
2022/04/25 03:42:04;;;;;;;7.78;6.97;;;;;;;;;;6208135;23;20111;-46
2022/04/25 03:44:30;;;;;;;7.88;6.60;;;;;;;;;;6208029;23;20009;-45
2022/04/25 03:46:56;;;;;;;6.55;5.50;;;;;;;;;;6208453;23;20553;-46
2022/04/25 03:49:22;;;;;;;6.22;5.05;;;;;;;;;;6208121;23;20620;-47
2022/04/25 03:51:48;;;;;;;5.40;4.90;;;;;;;;;;6207871;23;20012;-46
2022/04/25 03:57:09;;;;;;;5.90;5.30;;;;;;;;;;6207667;23;20438;-49
2022/04/25 03:57:10;;;;;;;4.70;4.22;;;;;;;;;;6207687;23;20009;-49
2022/04/25 03:59:36;;;;;;;5.13;4.63;;;;;;;;;;6207353;23;20039;-51
2022/04/25 04:02:02;;;;;;;5.22;4.72;;;;;;;;;;6208061;23;20009;-46
2022/04/25 04:04:29;;;;;;;5.03;4.53;;;;;;;;;;6207399;23;20015;-45
2022/04/25 04:06:55;;;;;;;5.63;5.03;;;;;;;;;;6206695;23;20004;-49
2022/04/25 04:12:05;;;;;;;;;;;;;;;;;;6207079;23;20043;-49
2022/04/25 04:14:31;;;;;;;4.68;4.28;;;;;;;;;;6207247;23;20476;-49
2022/04/25 04:16:58;;;;;;;5.93;5.10;;;;;;;;;;6208611;23;20319;-48
2022/04/25 04:19:25;;;;;;;8.75;6.57;;;;;;;;;;6208082;23;20012;-50
2022/04/25 04:21:52;;;;;;;6.35;5.72;;;;;;;;;;6207987;23;20086;-47
2022/04/25 04:24:18;;;;;;;7.03;6.32;;;;;;;;;;6207701;23;20029;-47
2022/04/25 04:26:44;;;;;;;6.90;6.20;;;;;;;;;;6207414;23;20013;-49
2022/04/25 04:29:11;;;;;;;6.55;5.35;;;;;;;;;;6208160;23;19997;-50
2022/04/25 04:31:37;;;;;;;5.70;5.10;;;;;;;;;;6209659;23;20473;-46
2022/04/25 04:34:03;;;;;;;5.63;5.07;;;;;;;;;;6209792;23;20383;-49
2022/04/25 04:36:29;;;;;;;5.60;4.97;;;;;;;;;;6209210;23;20489;-50
2022/04/25 04:38:55;;;;;;;7.35;5.13;;;;;;;;;;6210047;23;20370;-48
2022/04/25 04:41:22;;;;;;;5.45;4.95;;;;;;;;;;6182903;23;20438;-48
2022/04/25 04:43:49;;;;;;;5.38;4.88;;;;;;;;;;6209468;23;20056;-49
2022/04/25 04:46:15;;;;;;;4.45;4.05;;;;;;;;;;6209629;23;20377;-50
2022/04/25 04:48:41;;;;;;;5.18;4.60;;;;;;;;;;6208993;23;20135;-47
2022/04/25 04:51:08;;;;;;;5.13;4.47;;;;;;;;;;6209082;23;20008;-49
2022/04/25 04:53:34;;;;;;;3.92;3.63;;;;;;;;;;6209043;23;20000;-49
2022/04/25 04:56:00;;;;;;;4.10;3.70;;;;;;;;;;6209437;23;20004;-49
2022/04/25 04:58:28;;;;;;;4.85;4.25;;;;;;;;;;6210037;23;20480;-46
2022/04/25 05:00:54;;;;;;;5.32;4.55;;;;;;;;;;6208240;23;20009;-49
2022/04/25 05:03:20;;;;;;;4.95;4.50;;;;;;;;;;6209088;23;20018;-47
2022/04/25 05:05:46;;;;;;;5.05;4.55;;;;;;;;;;6209179;23;20067;-50
2022/04/25 05:08:13;;;;;;;4.55;4.15;;;;;;;;;;6208889;23;20009;-47
2022/04/25 05:10:40;;;;;;;4.47;4.07;;;;;;;;;;6208866;23;20015;-49
2022/04/25 05:13:06;;;;;;;4.35;3.95;;;;;;;;;;6209185;23;20140;-52
2022/04/25 05:15:32;;;;;;;4.05;3.75;;;;;;;;;;6208979;23;20335;-49
2022/04/25 05:18:00;;;;;;;4.63;3.58;;;;;;;;;;6209567;23;20379;-52
2022/04/25 05:20:27;;;;;;;3.83;3.53;;;;;;;;;;6209881;23;20441;-48
2022/04/25 05:22:53;;;;;;;3.95;3.60;;;;;;;;;;6208677;23;20492;-49
2022/04/25 05:25:21;;;;;;;4.13;3.72;;;;;;;;;;6208820;23;20059;-52
2022/04/25 05:27:48;;;;;;;3.83;3.50;;;;;;;;;;6208378;23;20075;-49
2022/04/25 05:30:17;;;;;;;3.53;3.22;;;;;;;;;;6208343;23;20051;-49
2022/04/25 05:32:48;;;;;;;3.85;3.55;;;;;;;;;;6208617;23;20000;-51
2022/04/25 05:35:15;;;;;;;4.15;3.75;;;;;;;;;;6208963;23;20024;-50
2022/04/25 05:37:41;;;;;;;3.92;3.60;;;;;;;;;;6208664;23;20004;-50
2022/04/25 05:40:07;;;;;;;3.58;3.28;;;;;;;;;;6208367;23;20008;-51
2022/04/25 05:42:34;;;;;;;3.25;3.00;;;;;;;;;;6208848;23;20777;-51
2022/04/25 05:45:00;;;;;;;4.13;3.72;;;;;;;;;;6208393;23;20480;-51
2022/04/25 05:47:27;;;;;;;3.70;3.40;;;;;;;;;;6208990;23;20004;-52
2022/04/25 05:52:38;;;;;;;3.70;3.40;;;;;;;;;;6208713;23;20012;-52
2022/04/25 05:55:04;;;;;;;3.80;3.50;;;;;;;;;;6208376;23;20005;-51
2022/04/25 05:57:30;;;;;;;3.45;3.15;;;;;;;;;;6208582;23;20008;-52
2022/04/25 05:59:57;;;;;;;3.75;3.38;;;;;;;;;;6209006;23;20008;-51
2022/04/25 06:02:23;;;;;;;3.05;2.75;;;;;;;;;;6207667;23;20442;-51
2022/04/25 06:04:49;;;;;;;3.35;3.05;;;;;;;;;;6207896;23;20521;-48
2022/04/25 06:07:15;;;;;;;2.83;2.63;;;;;;;;;;6207218;23;20005;-52
2022/04/25 06:09:41;;;;;;;3.50;3.20;;;;;;;;;;6208773;23;20008;-52
2022/04/25 06:12:07;;;;;;;3.40;2.92;;;;;;;;;;6207483;23;19997;-52
2022/04/25 06:14:34;;;;;;;4.20;3.80;;;;;;;;;;6208212;23;20051;-52
2022/04/25 06:17:00;;;;;;;4.05;3.67;;;;;;;;;;6209184;23;20005;-51
2022/04/25 06:19:27;;;;;;;4.18;3.78;;;;;;;;;;6208938;23;20489;-52
2022/04/25 06:21:53;;;;;;;4.45;4.05;;;;;;;;;;6208605;23;20005;-50
2022/04/25 06:24:19;;;;;;;4.10;3.70;;;;;;;;;;6207489;23;20076;-50
2022/04/25 06:26:47;;;;;;;4.60;4.18;;;;;;;;;;6209212;23;20304;-49
2022/04/25 06:29:13;;;;;;;3.90;3.60;;;;;;;;;;6207966;23;20043;-49
2022/04/25 06:31:39;;;;;;;4.13;3.72;;;;;;;;;;6209256;23;20004;-48
2022/04/25 06:34:05;;;;;;;3.83;3.53;;;;;;;;;;6208887;23;20434;-51
2022/04/25 06:36:32;;;;;;;5.05;4.03;;;;;;;;;;6208857;23;20005;-51
2022/04/25 06:38:58;;;;;;;3.95;3.55;;;;;;;;;;6210001;23;20559;-48
2022/04/25 06:41:24;;;;;;;4.20;3.80;;;;;;;;;;6209106;23;20009;-51
2022/04/25 06:43:50;;;;;;;4.72;3.72;;;;;;;;;;6207347;23;20441;-51
2022/04/25 06:46:17;;;;;;;4.45;3.88;;;;;;;;;;6207984;23;20000;-51
2022/04/25 06:49:19;;;;;;;3.55;3.25;;;;;;;;;;6208939;23;20008;-49
2022/04/25 06:51:30;;;;;;;4.35;3.95;;;;;;;;;;6209963;23;20008;-51
2022/04/25 06:53:57;;;;;;;4.50;3.80;;;;;;;;;;6209680;23;20392;-51
2022/04/25 06:56:23;;;;;;;4.20;3.80;;;;;;;;;;6182417;23;20091;-51
2022/04/25 06:58:49;;;;;;;4.13;3.72;;;;;;;;;;6208313;23;20084;-51
2022/04/25 07:01:15;;;;;;;4.10;3.70;;;;;;;;;;6208827;23;20426;-50
2022/04/25 07:03:41;;;;;;;4.10;3.70;;;;;;;;;;6209122;23;20001;-52
2022/04/25 07:06:08;;;;;;;3.50;3.20;;;;;;;;;;6208027;23;20008;-51
2022/04/25 07:08:34;;;;;;;4.50;4.10;;;;;;;;;;6208515;23;20001;-49
2022/04/25 07:11:00;;;;;;;3.80;3.40;;;;;;;;;;6208808;23;20000;-49
2022/04/25 07:13:26;;;;;;;3.67;3.35;;;;;;;;;;6207598;23;19996;-49
2022/04/25 07:15:52;;;;;;;3.70;3.33;;;;;;;;;;6208491;23;20687;-49
2022/04/25 07:18:18;;;;;;;3.55;3.25;;;;;;;;;;6207477;23;20075;-50
2022/04/25 07:20:44;;;;;;;4.82;4.15;;;;;;;;;;6208748;23;20446;-52
2022/04/25 07:28:48;;;;;;;6.50;5.43;;;;;;;;;;6207461;23;20074;-51
2022/04/25 07:31:15;;;;;;;5.60;5.10;;;;;;;;;;6208926;23;20024;-51
2022/04/25 07:33:43;;;;;;;4.85;4.35;;;;;;;;;;6208891;23;20024;-49
2022/04/25 07:36:09;;;;;;;4.22;3.83;;;;;;;;;;6208138;23;20005;-51
2022/04/25 07:38:36;;;;;;;5.03;4.53;;;;;;;;;;6207735;23;20001;-52
2022/04/25 07:41:02;;;;;;;4.18;3.78;;;;;;;;;;6207882;23;20005;-50
2022/04/25 07:43:29;;;;;;;4.63;4.22;;;;;;;;;;6209147;23;20012;-52
2022/04/25 07:45:56;;;;;;;4.40;4.00;;;;;;;;;;6208691;23;20476;-49
2022/04/25 07:48:23;;;;;;;5.95;4.40;;;;;;;;;;6180211;23;20469;-50
2022/04/25 07:50:49;;;;;;;4.22;3.83;;;;;;;;;;6206776;23;20024;-52
2022/04/25 07:53:15;;;;;;;4.03;3.67;;;;;;;;;;6208270;23;20012;-52
2022/04/25 07:55:41;;;;;;;3.88;3.58;;;;;;;;;;6205632;23;20020;-52
2022/04/25 07:58:10;;;;;;;3.50;3.20;;;;;;;;;;6207491;23;20028;-51
2022/04/25 08:00:38;;;;;;;3.70;3.40;;;;;;;;;;6208156;23;20072;-52
2022/04/25 08:03:05;;;;;;;4.50;4.03;;;;;;;;;;6208876;23;20012;-52
2022/04/25 08:05:32;;;;;;;4.85;4.00;;;;;;;;;;6212483;23;20036;-51
2022/04/25 08:07:58;;;;;;;3.60;3.30;;;;;;;;;;6211483;23;20349;-51
2022/04/25 08:10:24;;;;;;;3.45;3.15;;;;;;;;;;6211348;23;20000;-51
2022/04/25 08:18:19;;;;;;;4.65;3.30;;;;;;;;;;6211903;23;20023;-53
2022/04/25 08:20:47;;;;;;;4.20;3.80;;;;;;;;;;6210598;23;20020;-49
2022/04/25 08:23:13;;;;;;;5.15;3.85;;;;;;;;;;6210300;23;20327;-48
2022/04/25 08:25:40;;;;;;;4.18;3.47;;;;;;;;;;6210908;23;20005;-49
2022/04/25 08:28:07;;;;;;;4.75;3.38;;;;;;;;;;6209613;23;20011;-49
2022/04/25 08:30:33;;;;;;;3.47;3.17;;;;;;;;;;6210389;23;20511;-51
2022/04/25 08:33:00;;;;;;;3.88;3.58;;;;;;;;;;6211474;23;20016;-49
2022/04/25 08:35:27;;;;;;;4.88;3.08;;;;;;;;;;6210852;23;19997;-51
2022/04/25 08:37:54;;;;;;;4.60;3.78;;;;;;;;;;6210788;23;20008;-49
2022/04/25 08:40:20;;;;;;;3.63;3.15;;;;;;;;;;6210902;23;20385;-50
2022/04/25 08:42:46;;;;;;;3.67;3.38;;;;;;;;;;6210536;23;20004;-50
2022/04/25 08:45:13;;;;;;;3.40;3.10;;;;;;;;;;6210880;23;20361;-51
2022/04/25 08:47:59;;;;;;;3.35;2.95;;;;;;;;;;6210117;23;20005;-50
2022/04/25 08:50:26;;;;;;;2.72;2.53;;;;;;;;;;6210106;23;20437;-50
2022/04/25 08:52:53;;;;;;;2.67;2.47;;;;;;;;;;6210687;23;20008;-51
2022/04/25 08:55:19;;;;;;;3.03;2.60;;;;;;;;;;6210980;23;20079;-51
2022/04/25 08:57:46;;;;;;;2.85;2.65;;;;;;;;;;6209987;23;20076;-52
2022/04/25 09:00:13;;;;;;;3.00;2.80;;;;;;;;;;6208868;23;20006;-53
2022/04/25 09:02:40;;;;;;;3.05;2.80;;;;;;;;;;6208822;23;20015;-51
2022/04/25 09:05:06;;;;;;;3.55;2.90;;;;;;;;;;6209041;23;20043;-53
2022/04/25 09:07:33;;;;;;;2.58;2.38;;;;;;;;;;6209239;23;20001;-53
2022/04/25 09:09:59;;;;;;;2.58;2.38;;;;;;;;;;6209593;23;20456;-52
2022/04/25 09:12:25;;;;;;;3.08;2.78;;;;;;;;;;6208825;23;20029;-52
2022/04/25 09:14:51;;;;;;;2.67;2.47;;;;;;;;;;6208421;23;20004;-51
2022/04/25 09:17:17;;;;;;;3.53;2.92;;;;;;;;;;6181379;23;20040;-53
2022/04/25 09:19:43;;;;;;;4.45;4.05;;;;;;;;;;6208071;23;20422;-51
2022/04/25 09:22:11;;;;;;;3.58;3.28;;;;;;;;;;6208455;23;20000;-52
2022/04/25 09:24:46;;;;;;;3.28;2.97;;;;;;;;;;6208745;23;20034;-52
2022/04/25 09:27:13;;;;;;;3.15;2.85;;;;;;;;;;6208602;23;20087;-50
2022/04/25 09:29:40;;;;;;;2.67;2.47;;;;;;;;;;6208714;23;20677;-53
2022/04/25 09:32:09;;;;;;;4.57;2.63;;;;;;;;;;6208351;23;20132;-53
2022/04/25 09:37:38;;;;;;;2.70;2.50;;;;;;;;;;6208119;23;20511;-53
2022/04/25 09:40:04;;;;;;;3.78;3.00;;;;;;;;;;6209096;23;20009;-53
2022/04/25 09:42:30;;;;;;;2.95;2.72;;;;;;;;;;6209955;23;20047;-52
2022/04/25 09:44:58;;;;;;;2.75;2.55;;;;;;;;;;6209869;23;20433;-53
2022/04/25 09:47:25;;;;;;;2.83;2.63;;;;;;;;;;6208772;23;20523;-53
2022/04/25 09:50:00;;;;;;;3.13;2.85;;;;;;;;;;6209386;23;20028;-50
2022/04/25 09:52:27;;;;;;;2.83;2.58;;;;;;;;;;6209923;23;19997;-53
2022/04/25 09:54:53;;;;;;;4.03;3.20;;;;;;;;;;6182443;23;20058;-53
2022/04/25 09:57:32;;;;;;;3.03;2.72;;;;;;;;;;6209332;23;20047;-53
2022/04/25 09:59:59;;;;;;;2.80;2.60;;;;;;;;;;6210189;23;20394;-50
2022/04/25 10:02:26;;;;;;;2.80;2.53;;;;;;;;;;6208772;23;20022;-53
2022/04/25 10:04:53;;;;;;;2.90;2.67;;;;;;;;;;6209549;23;20008;-52
2022/04/25 10:07:22;;;;;;;3.00;2.70;;;;;;;;;;6209553;23;20016;-50
2022/04/25 10:09:52;;;;;;;2.70;2.50;;;;;;;;;;6208812;23;20004;-51
2022/04/25 10:12:18;;;;;;;2.97;2.78;;;;;;;;;;6208848;23;20000;-52
2022/04/25 10:14:45;;;;;;;3.20;2.90;;;;;;;;;;6209252;23;20000;-53
2022/04/25 10:17:12;;;;;;;2.42;2.22;;;;;;;;;;6209691;23;20008;-51
2022/04/25 10:19:39;;;;;;;2.47;2.28;;;;;;;;;;6209214;23;20009;-51
2022/04/25 10:22:05;;;;;;;2.50;2.30;;;;;;;;;;6208886;23;20005;-52
2022/04/25 10:24:32;;;;;;;2.72;2.47;;;;;;;;;;6210228;23;20009;-53
2022/04/25 10:27:06;;;;;;;2.78;2.47;;;;;;;;;;6209042;23;20004;-50
2022/04/25 10:29:34;;;;;;;3.22;2.90;;;;;;;;;;6208512;23;20001;-54
2022/04/25 10:32:01;;;;;;;3.08;2.78;;;;;;;;;;6208094;23;20488;-53
2022/04/25 10:34:46;;;;;;;3.08;2.78;;;;;;;;;;6208442;23;20019;-51
2022/04/25 10:37:32;;;;;;;3.30;3.00;;;;;;;;;;6207645;23;20028;-49
2022/04/25 10:39:58;;;;;;;3.80;3.50;;;;;;;;;;6208390;23;20005;-51
2022/04/25 10:45:10;;;;;;;3.65;3.22;;;;;;;;;;6207690;23;20019;-52
2022/04/25 10:47:36;;;;;;;3.42;3.13;;;;;;;;;;6208366;23;20005;-48
2022/04/25 10:50:06;;;;;;;3.63;3.33;;;;;;;;;;6208297;23;20373;-53
2022/04/25 10:55:21;;;;;;;3.78;3.38;;;;;;;;;;6207148;23;20028;-53
2022/04/25 10:58:03;;;;;;;3.70;3.40;;;;;;;;;;6207883;23;20071;-51
2022/04/25 11:03:08;;;;;;;5.32;3.20;;;;;;;;;;6208120;23;20025;-53
2022/04/25 11:05:35;;;;;;;4.43;4.03;;;;;;;;;;6207870;23;20075;-53
2022/04/25 11:08:19;;;;;;;4.20;3.80;;;;;;;;;;6208233;23;20008;-53
2022/04/25 11:10:45;;;;;;;4.03;3.72;;;;;;;;;;6206028;23;20000;-53
2022/04/25 11:13:12;;;;;;;3.97;3.55;;;;;;;;;;6207336;23;20074;-53
2022/04/25 11:15:39;;;;;;;3.67;3.38;;;;;;;;;;6207979;23;20457;-52
2022/04/25 11:18:34;;;;;;;4.72;4.25;;;;;;;;;;6207711;23;20023;-50
2022/04/25 11:21:04;;;;;;;3.65;3.35;;;;;;;;;;6205615;23;20005;-53
2022/04/25 11:23:31;;;;;;;3.60;3.30;;;;;;;;;;6208743;23;20005;-51
2022/04/25 11:25:59;;;;;;;4.35;3.95;;;;;;;;;;6207296;23;20005;-52
2022/04/25 11:28:26;;;;;;;5.10;3.83;;;;;;;;;;6207193;23;20004;-51
2022/04/25 11:31:11;;;;;;;5.57;4.10;;;;;;;;;;6207208;23;20007;-53
2022/04/25 11:33:42;;;;;;;4.40;4.00;;;;;;;;;;6207581;23;20040;-52
2022/04/25 11:36:10;;;;;;;4.40;4.00;;;;;;;;;;6207540;23;20373;-51
2022/04/25 11:41:22;;;;;;;4.85;4.10;;;;;;;;;;6207351;23;20472;-53
2022/04/25 11:43:48;;;;;;;4.20;3.67;;;;;;;;;;6206830;23;20454;-51
2022/04/25 11:46:15;;;;;;;4.18;3.78;;;;;;;;;;6207178;23;20461;-52
2022/04/25 11:48:41;;;;;;;4.75;4.03;;;;;;;;;;6207779;23;20011;-53
2022/04/25 11:51:08;;;;;;;4.22;3.83;;;;;;;;;;6207770;23;20001;-53
2022/04/25 11:53:34;;;;;;;4.30;3.90;;;;;;;;;;6207165;23;20001;-51
2022/04/25 11:56:13;;;;;;;5.03;3.78;;;;;;;;;;6207700;23;20001;-51
2022/04/25 11:58:39;;;;;;;3.97;3.60;;;;;;;;;;6207599;23;20015;-53
2022/04/25 12:01:05;;;;;;;4.65;4.15;;;;;;;;;;6207398;23;20012;-51
2022/04/25 12:03:31;;;;;;;5.18;4.10;;;;;;;;;;6180037;23;20335;-51
2022/04/25 12:06:13;;;;;;;4.97;3.97;;;;;;;;;;6206851;23;20015;-50
2022/04/25 12:17:04;;;;;;;5.32;4.60;;;;;;;;;;6206662;23;20020;-50
2022/04/25 12:19:32;;;;;;;5.65;4.65;;;;;;;;;;6207768;23;20000;-53
2022/04/25 12:22:03;;;;;;;5.32;4.82;;;;;;;;;;6181073;23;20009;-50
2022/04/25 12:24:29;;;;;;;5.10;4.60;;;;;;;;;;6179946;23;20009;-52
2022/04/25 12:26:56;;;;;;;4.85;4.40;;;;;;;;;;6204660;23;20004;-51
2022/04/25 12:29:22;;;;;;;5.57;4.78;;;;;;;;;;6205017;23;20358;-48
2022/04/25 12:31:48;;;;;;;4.63;4.22;;;;;;;;;;6204415;23;20031;-51
2022/04/25 12:34:22;;;;;;;5.00;4.60;;;;;;;;;;6204995;23;20005;-51
2022/04/25 12:37:00;;;;;;;4.93;4.53;;;;;;;;;;6205289;23;20036;-51
2022/04/25 12:39:27;;;;;;;4.72;4.30;;;;;;;;;;6205041;23;20293;-49
2022/04/25 12:41:59;;;;;;;4.60;4.20;;;;;;;;;;6178377;23;20092;-48
2022/04/25 12:44:26;;;;;;;5.07;4.57;;;;;;;;;;6205064;23;20028;-49
2022/04/25 12:47:05;;;;;;;4.80;4.28;;;;;;;;;;6178207;23;20059;-48
2022/04/25 12:49:35;;;;;;;4.65;4.25;;;;;;;;;;6206251;23;20007;-52
2022/04/25 12:52:02;;;;;;;5.13;4.63;;;;;;;;;;6207148;23;20390;-53
2022/04/25 12:54:30;;;;;;;4.78;4.30;;;;;;;;;;6207605;23;20040;-52
2022/04/25 12:57:05;;;;;;;5.57;5.03;;;;;;;;;;6206276;23;20009;-53
2022/04/25 12:59:33;;;;;;;4.40;4.00;;;;;;;;;;6207376;23;20008;-51
2022/04/25 13:02:07;;;;;;;5.80;4.70;;;;;;;;;;6207191;23;20095;-53
2022/04/25 13:04:48;;;;;;;5.32;4.47;;;;;;;;;;6206965;23;20414;-51
2022/04/25 13:07:14;;;;;;;5.10;4.60;;;;;;;;;;6207320;23;20096;-49
2022/04/25 13:09:41;;;;;;;5.20;4.70;;;;;;;;;;6179324;23;20074;-53
2022/04/25 13:12:14;;;;;;;5.10;4.60;;;;;;;;;;6206443;23;20342;-51
2022/04/25 13:14:40;;;;;;;5.40;4.90;;;;;;;;;;6206442;23;20354;-53
2022/04/25 13:17:06;;;;;;;4.93;4.43;;;;;;;;;;6179726;23;20023;-52
2022/04/25 13:19:32;;;;;;;5.25;4.75;;;;;;;;;;6206930;23;20013;-52
2022/04/25 13:21:58;;;;;;;5.80;4.80;;;;;;;;;;6180266;23;20357;-53
2022/04/25 13:24:24;;;;;;;4.70;4.18;;;;;;;;;;6206091;23;20004;-52
2022/04/25 13:26:51;;;;;;;4.63;4.22;;;;;;;;;;6206513;23;20139;-52
2022/04/25 13:29:17;;;;;;;4.50;4.10;;;;;;;;;;6179505;23;20036;-53
2022/04/25 13:31:44;;;;;;;4.82;4.43;;;;;;;;;;6206257;23;20332;-53
2022/04/25 13:34:10;;;;;;;7.45;5.15;;;;;;;;;;6179402;23;20007;-52
2022/04/25 13:36:36;;;;;;;4.97;4.55;;;;;;;;;;6206290;23;20008;-50
2022/04/25 13:39:03;;;;;;;5.65;5.13;;;;;;;;;;6205795;23;20513;-54
2022/04/25 13:41:30;;;;;;;5.07;4.57;;;;;;;;;;6207401;23;20012;-51
2022/04/25 13:43:57;;;;;;;5.05;4.57;;;;;;;;;;6206448;23;20067;-52
2022/04/25 13:46:23;;;;;;;5.05;4.55;;;;;;;;;;6206152;23;20005;-51
2022/04/25 13:48:53;;;;;;;4.57;4.07;;;;;;;;;;6178942;23;20536;-54
2022/04/25 13:51:19;;;;;;;5.65;5.13;;;;;;;;;;6206577;23;20127;-52
2022/04/25 13:53:45;;;;;;;5.22;4.72;;;;;;;;;;6207865;23;20011;-51
2022/04/25 13:56:12;;;;;;;4.78;4.38;;;;;;;;;;6207938;23;20003;-51
2022/04/25 13:58:39;;;;;;;4.88;4.45;;;;;;;;;;6208542;23;20008;-52
2022/04/25 14:01:06;;;;;;;4.20;3.85;;;;;;;;;;6206727;23;20066;-49
2022/04/25 14:03:32;;;;;;;5.38;4.70;;;;;;;;;;6207488;23;20000;-52
2022/04/25 14:05:59;;;;;;;4.90;4.50;;;;;;;;;;6207563;23;20005;-51
2022/04/25 14:08:26;;;;;;;5.57;5.07;;;;;;;;;;6206654;23;20078;-50
2022/04/25 14:10:55;;;;;;;5.30;4.78;;;;;;;;;;6206668;23;20473;-49
2022/04/25 14:13:25;;;;;;;5.18;4.68;;;;;;;;;;6206504;23;20120;-52
2022/04/25 14:15:52;;;;;;;5.85;4.97;;;;;;;;;;6206970;23;20095;-48
2022/04/25 14:18:20;;;;;;;4.90;4.47;;;;;;;;;;6206845;23;20013;-50
2022/04/25 14:20:46;;;;;;;5.30;4.80;;;;;;;;;;6206725;23;20013;-52
2022/04/25 14:23:12;;;;;;;5.40;4.90;;;;;;;;;;6206296;23;20032;-52
2022/04/25 14:25:38;;;;;;;5.63;4.93;;;;;;;;;;6206787;23;20008;-51
2022/04/25 14:28:04;;;;;;;5.63;4.97;;;;;;;;;;6206997;23;20322;-50
2022/04/25 14:30:32;;;;;;;5.10;4.60;;;;;;;;;;6207477;23;20007;-51
2022/04/25 14:32:59;;;;;;;4.57;4.18;;;;;;;;;;6207247;23;20062;-51
2022/04/25 14:35:25;;;;;;;5.38;4.85;;;;;;;;;;6206409;23;20508;-51
2022/04/25 14:37:52;;;;;;;5.65;5.13;;;;;;;;;;6206348;23;21029;-51
2022/04/25 14:40:19;;;;;;;5.47;4.97;;;;;;;;;;6206536;23;20019;-52
2022/04/25 14:42:47;;;;;;;5.40;4.90;;;;;;;;;;6206388;23;20004;-51
2022/04/25 14:45:13;;;;;;;5.82;5.32;;;;;;;;;;6206377;23;20058;-52
2022/04/25 14:47:43;;;;;;;5.45;4.95;;;;;;;;;;6206184;23;20005;-50
2022/04/25 14:55:39;;;;;;;4.75;4.35;;;;;;;;;;6206766;23;20019;-49
2022/04/25 14:58:05;;;;;;;5.95;5.35;;;;;;;;;;6206279;23;20008;-51
2022/04/25 15:00:31;;;;;;;5.13;4.63;;;;;;;;;;6207196;23;20349;-51
2022/04/25 15:02:58;;;;;;;5.20;4.70;;;;;;;;;;6206718;23;20374;-50
2022/04/25 15:05:24;;;;;;;5.45;4.95;;;;;;;;;;6206424;23;20011;-52
2022/04/25 15:07:50;;;;;;;4.70;4.22;;;;;;;;;;6206023;23;20005;-50
2022/04/25 15:10:16;;;;;;;5.55;5.00;;;;;;;;;;6206322;23;20094;-52
2022/04/25 15:12:42;;;;;;;5.38;4.88;;;;;;;;;;6205719;23;20445;-48
2022/04/25 15:15:09;;;;;;;5.40;4.88;;;;;;;;;;6206142;23;20472;-51
2022/04/25 15:17:36;;;;;;;5.50;5.00;;;;;;;;;;6206064;23;20024;-51
2022/04/25 15:20:02;;;;;;;4.65;4.18;;;;;;;;;;6206411;23;20051;-52
2022/04/25 15:22:28;;;;;;;5.43;4.93;;;;;;;;;;6206682;23;20032;-53
2022/04/25 15:24:55;;;;;;;6.20;5.60;;;;;;;;;;6206236;23;20012;-50
2022/04/25 15:27:21;;;;;;;5.78;5.28;;;;;;;;;;6206343;23;20011;-51
2022/04/25 15:29:47;;;;;;;5.55;5.05;;;;;;;;;;6206388;23;20068;-52
2022/04/25 15:32:13;;;;;;;5.90;5.30;;;;;;;;;;6206175;23;20004;-52
2022/04/25 15:34:39;;;;;;;5.75;5.25;;;;;;;;;;6205992;23;20003;-52